Map

Track Data

SID SEASON NUMBER BASIN SUBBASIN NAME ISO_TIME NATURE LAT LON WMO_WIND WMO_PRES WMO_AGENCY TRACK_TYPE DIST2LAND LANDFALL IFLAG USA_AGENCY USA_ATCF_ID USA_LAT USA_LON USA_RECORD USA_STATUS USA_WIND USA_PRES USA_SSHS USA_R34_NE USA_R34_SE USA_R34_SW USA_R34_NW USA_R50_NE USA_R50_SE USA_R50_SW USA_R50_NW USA_R64_NE USA_R64_SE USA_R64_SW USA_R64_NW USA_POCI USA_ROCI USA_RMW USA_EYE TOKYO_LAT TOKYO_LON TOKYO_GRADE TOKYO_WIND TOKYO_PRES TOKYO_R50_DIR TOKYO_R50_LONG TOKYO_R50_SHORT TOKYO_R30_DIR TOKYO_R30_LONG TOKYO_R30_SHORT TOKYO_LAND CMA_LAT CMA_LON CMA_CAT CMA_WIND CMA_PRES HKO_LAT HKO_LON HKO_CAT HKO_WIND HKO_PRES NEWDELHI_LAT NEWDELHI_LON NEWDELHI_GRADE NEWDELHI_WIND NEWDELHI_PRES NEWDELHI_CI NEWDELHI_DP NEWDELHI_POCI REUNION_LAT REUNION_LON REUNION_TYPE REUNION_WIND REUNION_PRES REUNION_TNUM REUNION_CI REUNION_RMW REUNION_R34_NE REUNION_R34_SE REUNION_R34_SW REUNION_R34_NW REUNION_R50_NE REUNION_R50_SE REUNION_R50_SW REUNION_R50_NW REUNION_R64_NE REUNION_R64_SE REUNION_R64_SW REUNION_R64_NW BOM_LAT BOM_LON BOM_TYPE BOM_WIND BOM_PRES BOM_TNUM BOM_CI BOM_RMW BOM_R34_NE BOM_R34_SE BOM_R34_SW BOM_R34_NW BOM_R50_NE BOM_R50_SE BOM_R50_SW BOM_R50_NW BOM_R64_NE BOM_R64_SE BOM_R64_SW BOM_R64_NW BOM_ROCI BOM_POCI BOM_EYE BOM_POS_METHOD BOM_PRES_METHOD NADI_LAT NADI_LON NADI_CAT NADI_WIND NADI_PRES WELLINGTON_LAT WELLINGTON_LON WELLINGTON_WIND WELLINGTON_PRES DS824_LAT DS824_LON DS824_STAGE DS824_WIND DS824_PRES TD9636_LAT TD9636_LON TD9636_STAGE TD9636_WIND TD9636_PRES TD9635_LAT TD9635_LON TD9635_WIND TD9635_PRES TD9635_ROCI NEUMANN_LAT NEUMANN_LON NEUMANN_CLASS NEUMANN_WIND NEUMANN_PRES MLC_LAT MLC_LON MLC_CLASS MLC_WIND MLC_PRES USA_GUST BOM_GUST BOM_GUST_PER REUNION_GUST REUNION_GUST_PER USA_SEAHGT USA_SEARAD_NE USA_SEARAD_SE USA_SEARAD_SW USA_SEARAD_NW STORM_SPEED STORM_DIR
1988235N15317 1988 60 NA NA CHRIS 1988-08-21 12:00:00 TS 14.9000 -43.3000 25 1009 hurdat_atl main 1475 1382 O_____________ hurdat_atl AL031988 14.9000 -43.3000 TD 25 1009 -1 24 262
1988235N15317 1988 60 NA NA CHRIS 1988-08-21 15:00:00 TS 14.7240 -44.5307 main 1382 1302 P_____________ AL031988 14.7240 -44.5307 TD 25 1009 -1 23 263
1988235N15317 1988 60 NA NA CHRIS 1988-08-21 18:00:00 TS 14.6000 -45.7000 25 1009 hurdat_atl main 1295 1235 O_____________ hurdat_atl AL031988 14.6000 -45.7000 TD 25 1009 -1 22 266
1988235N15317 1988 60 NA NA CHRIS 1988-08-21 21:00:00 TS 14.5692 -46.7722 main 1229 1181 P_____________ AL031988 14.5692 -46.7722 TD 25 1009 -1 20 270
1988235N15317 1988 60 NA NA CHRIS 1988-08-22 00:00:00 TS 14.6000 -47.8000 25 1009 hurdat_atl main 1176 1129 O_____________ hurdat_atl AL031988 14.6000 -47.8000 TD 25 1009 -1 20 272
1988235N15317 1988 60 NA NA CHRIS 1988-08-22 03:00:00 TS 14.6421 -48.8574 main 1125 1096 P_____________ AL031988 14.6421 -48.8574 TD 25 1009 -1 20 273
1988235N15317 1988 60 NA NA CHRIS 1988-08-22 06:00:00 TS 14.7000 -49.9000 25 1009 hurdat_atl main 1092 1053 O_____________ hurdat_atl AL031988 14.7000 -49.9000 TD 25 1009 -1 20 273
1988235N15317 1988 60 NA NA CHRIS 1988-08-22 09:00:00 TS 14.7344 -50.9003 main 1049 1030 P_____________ AL031988 14.7344 -50.9003 TD 27 1009 -1 19 273
1988235N15317 1988 60 NA NA CHRIS 1988-08-22 12:00:00 TS 14.8000 -51.9000 30 1009 hurdat_atl main 1028 996 O_____________ hurdat_atl AL031988 14.8000 -51.9000 TD 30 1009 -1 20 276
1988235N15317 1988 60 NA NA CHRIS 1988-08-22 15:00:00 TS 14.9425 -52.9722 main 986 913 P_____________ AL031988 14.9425 -52.9722 TD 30 1009 -1 21 278
1988235N15317 1988 60 NA NA CHRIS 1988-08-22 18:00:00 TS 15.1000 -54.0000 30 1009 hurdat_atl main 904 839 O_____________ hurdat_atl AL031988 15.1000 -54.0000 TD 30 1009 -1 19 278
1988235N15317 1988 60 NA NA CHRIS 1988-08-22 21:00:00 TS 15.1992 -54.8728 main 831 771 P_____________ AL031988 15.1992 -54.8728 TD 30 1009 -1 17 277
1988235N15317 1988 60 NA NA CHRIS 1988-08-23 00:00:00 TS 15.3000 -55.7000 30 1009 hurdat_atl main 771 717 O_____________ hurdat_atl AL031988 15.3000 -55.7000 TD 30 1009 -1 17 278
1988235N15317 1988 60 NA NA CHRIS 1988-08-23 03:00:00 TS 15.4348 -56.6001 main 710 666 P_____________ AL031988 15.4348 -56.6001 TD 30 1009 -1 18 280
1988235N15317 1988 60 NA NA CHRIS 1988-08-23 06:00:00 TS 15.6000 -57.5000 30 1009 hurdat_atl main 666 641 O_____________ hurdat_atl AL031988 15.6000 -57.5000 TD 30 1009 -1 17 282
1988235N15317 1988 60 NA NA CHRIS 1988-08-23 09:00:00 TS 15.7995 -58.3500 main 636 621 P_____________ AL031988 15.7995 -58.3500 TD 30 1009 -1 17 284
1988235N15317 1988 60 NA NA CHRIS 1988-08-23 12:00:00 TS 16.0000 -59.2000 30 1009 hurdat_atl main 624 612 O_____________ hurdat_atl AL031988 16.0000 -59.2000 TD 30 1009 -1 17 282
1988235N15317 1988 60 NA NA CHRIS 1988-08-23 15:00:00 TS 16.1501 -60.1227 main 623 532 P_____________ AL031988 16.1501 -60.1227 TD 30 1009 -1 18 280
1988235N15317 1988 60 NA CS CHRIS 1988-08-23 18:00:00 TS 16.3000 -61.0000 30 1009 hurdat_atl main 532 455 O_____________ hurdat_atl AL031988 16.3000 -61.0000 TD 30 1009 -1 16 283
1988235N15317 1988 60 NA CS CHRIS 1988-08-23 21:00:00 TS 16.5069 -61.7300 main 455 378 P_____________ AL031988 16.5069 -61.7300 TD 30 1009 -1 14 287
1988235N15317 1988 60 NA CS CHRIS 1988-08-24 00:00:00 TS 16.7000 -62.4000 30 1009 hurdat_atl main 378 307 O_____________ hurdat_atl AL031988 16.7000 -62.4000 TD 30 1009 -1 13 283
1988235N15317 1988 60 NA CS CHRIS 1988-08-24 03:00:00 TS 16.8073 -63.1003 main 307 239 P_____________ AL031988 16.8073 -63.1003 TD 30 1009 -1 14 278
1988235N15317 1988 60 NA CS CHRIS 1988-08-24 06:00:00 TS 16.9000 -63.8000 30 1009 hurdat_atl main 239 177 O_____________ hurdat_atl AL031988 16.9000 -63.8000 TD 30 1009 -1 14 280
1988235N15317 1988 60 NA CS CHRIS 1988-08-24 09:00:00 TS 17.0422 -64.4926 main 177 109 P_____________ AL031988 17.0422 -64.4926 TD 30 1009 -1 14 283
1988235N15317 1988 60 NA CS CHRIS 1988-08-24 12:00:00 TS 17.2000 -65.2000 30 1009 hurdat_atl main 109 74 O_____________ hurdat_atl AL031988 17.2000 -65.2000 TD 30 1009 -1 14 282
1988235N15317 1988 60 NA CS CHRIS 1988-08-24 15:00:00 TS 17.3501 -65.9725 main 59 49 P_____________ AL031988 17.3501 -65.9725 TD 30 1009 -1 15 282
1988235N15317 1988 60 NA CS CHRIS 1988-08-24 18:00:00 TS 17.5000 -66.7000 30 1009 hurdat_atl main 49 33 O_____________ hurdat_atl AL031988 17.5000 -66.7000 TD 30 1009 -1 13 283
1988235N15317 1988 60 NA CS CHRIS 1988-08-24 21:00:00 TS 17.6421 -67.2877 main 35 24 P_____________ AL031988 17.6421 -67.2877 TD 30 1009 -1 11 286
1988235N15317 1988 60 NA CS CHRIS 1988-08-25 00:00:00 TS 17.8000 -67.8000 30 1009 hurdat_atl main 64 38 O_____________ hurdat_atl AL031988 17.8000 -67.8000 TD 30 1009 -1 10 290
1988235N15317 1988 60 NA CS CHRIS 1988-08-25 03:00:00 TS 17.9998 -68.3075 main 38 0 P_____________ AL031988 17.9998 -68.3075 TD 30 1009 -1 10 293
1988235N15317 1988 60 NA CS CHRIS 1988-08-25 06:00:00 TS 18.2000 -68.8000 30 1009 hurdat_atl main 0 0 O_____________ hurdat_atl AL031988 18.2000 -68.8000 TD 30 1009 -1 10 290
1988235N15317 1988 60 NA CS CHRIS 1988-08-25 09:00:00 TS 18.3348 -69.2929 main 22 0 P_____________ AL031988 18.3348 -69.2929 TD 30 1008 -1 10 288
1988235N15317 1988 60 NA CS CHRIS 1988-08-25 12:00:00 TS 18.5000 -69.8000 30 1008 hurdat_atl main 0 0 O_____________ hurdat_atl AL031988 18.5000 -69.8000 TD 30 1008 -1 11 294
1988235N15317 1988 60 NA NA CHRIS 1988-08-25 15:00:00 TS 18.7698 -70.3351 main 0 0 P_____________ AL031988 18.7698 -70.3351 TD 30 1008 -1 12 300
1988235N15317 1988 60 NA NA CHRIS 1988-08-25 18:00:00 TS 19.1000 -70.9000 30 1008 hurdat_atl main 0 0 O_____________ hurdat_atl AL031988 19.1000 -70.9000 TD 30 1008 -1 13 301
1988235N15317 1988 60 NA NA CHRIS 1988-08-25 21:00:00 TS 19.4424 -71.5001 main 0 0 P_____________ AL031988 19.4424 -71.5001 TD 30 1008 -1 13 302
1988235N15317 1988 60 NA NA CHRIS 1988-08-26 00:00:00 TS 19.8000 -72.1000 30 1008 hurdat_atl main 11 11 O_____________ hurdat_atl AL031988 19.8000 -72.1000 TD 30 1008 -1 13 302
1988235N15317 1988 60 NA NA CHRIS 1988-08-26 03:00:00 TS 20.1273 -72.6655 main 22 22 P_____________ AL031988 20.1273 -72.6655 TD 30 1008 -1 13 304
1988235N15317 1988 60 NA NA CHRIS 1988-08-26 06:00:00 TS 20.5000 -73.2000 30 1008 hurdat_atl main 55 0 O_____________ hurdat_atl AL031988 20.5000 -73.2000 TD 30 1008 -1 13 311
1988235N15317 1988 60 NA NA CHRIS 1988-08-26 09:00:00 TS 20.9772 -73.6928 main 0 0 P_____________ AL031988 20.9772 -73.6928 TD 30 1008 -1 14 317
1988235N15317 1988 60 NA NA CHRIS 1988-08-26 12:00:00 TS 21.5000 -74.2000 30 1008 hurdat_atl main 68 68 O_____________ hurdat_atl AL031988 21.5000 -74.2000 TD 30 1008 -1 15 315
1988235N15317 1988 60 NA NA CHRIS 1988-08-26 15:00:00 TS 22.0152 -74.8148 main 139 137 P_____________ AL031988 22.0152 -74.8148 TD 30 1008 -1 15 312
1988235N15317 1988 60 NA NA CHRIS 1988-08-26 18:00:00 TS 22.5000 -75.4000 30 1008 hurdat_atl main 167 162 O_____________ hurdat_atl AL031988 22.5000 -75.4000 TD 30 1008 -1 13 314
1988235N15317 1988 60 NA NA CHRIS 1988-08-26 21:00:00 TS 22.9145 -75.8158 main 189 189 P_____________ AL031988 22.9145 -75.8158 TD 30 1008 -1 11 317
1988235N15317 1988 60 NA NA CHRIS 1988-08-27 00:00:00 TS 23.3000 -76.2000 30 1008 hurdat_atl main 201 135 O_____________ hurdat_atl AL031988 23.3000 -76.2000 TD 30 1008 -1 11 314
1988235N15317 1988 60 NA NA CHRIS 1988-08-27 03:00:00 TS 23.7000 -76.6926 main 135 67 P_____________ AL031988 23.7000 -76.6926 TD 30 1008 -1 12 311
1988235N15317 1988 60 NA NA CHRIS 1988-08-27 06:00:00 TS 24.1000 -77.2000 30 1008 hurdat_atl main 67 10 O_____________ hurdat_atl AL031988 24.1000 -77.2000 TD 30 1008 -1 12 312
1988235N15317 1988 60 NA NA CHRIS 1988-08-27 09:00:00 TS 24.4923 -77.6579 main 0 0 P_____________ AL031988 24.4923 -77.6579 TD 30 1008 -1 11 314
1988235N15317 1988 60 NA NA CHRIS 1988-08-27 12:00:00 TS 24.9000 -78.1000 30 1008 hurdat_atl main 0 0 O_____________ hurdat_atl AL031988 24.9000 -78.1000 TD 30 1008 -1 12 316
1988235N15317 1988 60 NA NA CHRIS 1988-08-27 15:00:00 TS 25.3350 -78.5651 main 55 55 P_____________ AL031988 25.3350 -78.5651 TD 30 1008 -1 12 318
1988235N15317 1988 60 NA NA CHRIS 1988-08-27 18:00:00 TS 25.8000 -79.0000 30 1008 hurdat_atl main 110 69 O_____________ hurdat_atl AL031988 25.8000 -79.0000 TD 30 1008 -1 12 321
1988235N15317 1988 60 NA NA CHRIS 1988-08-27 21:00:00 TS 26.2625 -79.3952 main 69 29 P_____________ AL031988 26.2625 -79.3952 TD 30 1008 -1 12 328
1988235N15317 1988 60 NA NA CHRIS 1988-08-28 00:00:00 TS 26.8000 -79.7000 30 1008 hurdat_atl main 29 22 O_____________ hurdat_atl AL031988 26.8000 -79.7000 TD 30 1008 -1 12 340
1988235N15317 1988 60 NA NA CHRIS 1988-08-28 03:00:00 TS 27.3798 -79.8446 main 45 37 P_____________ AL031988 27.3798 -79.8446 TD 35 1008 0 14 349
1988235N15317 1988 60 NA NA CHRIS 1988-08-28 06:00:00 TS 28.2000 -80.0000 40 1008 hurdat_atl main 59 36 O_____________ hurdat_atl AL031988 28.2000 -80.0000 TS 40 1008 0 21 346
1988235N15317 1988 60 NA NA CHRIS 1988-08-28 09:00:00 TS 29.4392 -80.4246 main 58 57 P_____________ AL031988 29.4392 -80.4246 TS 42 1006 0 27 345
1988235N15317 1988 60 NA NA CHRIS 1988-08-28 12:00:00 TS 30.8000 -80.8000 45 1005 hurdat_atl main 57 0 O_____________ hurdat_atl AL031988 30.8000 -80.8000 TS 45 1005 0 26 351
1988235N15317 1988 60 NA NA CHRIS 1988-08-28 15:00:00 TS 32.0000 -80.9000 40 1005 hurdat_atl main 0 0 O_____________ hurdat_atl AL031988 32.0000 -80.9000 L TS 40 1005 0 20 353
1988235N15317 1988 60 NA NA CHRIS 1988-08-28 18:00:00 TS 32.8000 -81.1000 35 1006 hurdat_atl main 0 0 O_____________ hurdat_atl AL031988 32.8000 -81.1000 TS 35 1006 0 15 351
1988235N15317 1988 60 NA NA CHRIS 1988-08-28 21:00:00 TS 33.4533 -81.1747 main 0 0 P_____________ AL031988 33.4533 -81.1747 TS 30 1007 -1 13 1
1988235N15317 1988 60 NA NA CHRIS 1988-08-29 00:00:00 TS 34.1000 -81.1000 25 1008 hurdat_atl main 0 0 O_____________ hurdat_atl AL031988 34.1000 -81.1000 TD 25 1008 -1 15 8
1988235N15317 1988 60 NA NA CHRIS 1988-08-29 03:00:00 TS 34.9197 -80.9317 main 0 0 P_____________ AL031988 34.9197 -80.9317 TD 22 1008 -1 18 14
1988235N15317 1988 60 NA NA CHRIS 1988-08-29 06:00:00 ET 35.8000 -80.6000 20 1009 hurdat_atl main 0 0 O_____________ hurdat_atl AL031988 35.8000 -80.6000 EX 20 1009 -4 18 20
1988235N15317 1988 60 NA NA CHRIS 1988-08-29 09:00:00 ET 36.6492 -80.1531 main 0 0 P_____________ AL031988 36.6492 -80.1531 EX 20 1009 -4 19 27
1988235N15317 1988 60 NA NA CHRIS 1988-08-29 12:00:00 ET 37.5000 -79.5000 20 1009 hurdat_atl main 0 0 O_____________ hurdat_atl AL031988 37.5000 -79.5000 EX 20 1009 -4 20 33
1988235N15317 1988 60 NA NA CHRIS 1988-08-29 15:00:00 ET 38.3229 -78.7595 main 0 0 P_____________ AL031988 38.3229 -78.7595 EX 20 1009 -4 23 41
1988235N15317 1988 60 NA NA CHRIS 1988-08-29 18:00:00 ET 39.2000 -77.6000 20 1010 hurdat_atl main 0 0 O_____________ hurdat_atl AL031988 39.2000 -77.6000 EX 20 1010 -4 30 52
1988235N15317 1988 60 NA NA CHRIS 1988-08-29 21:00:00 ET 40.1597 -75.7356 main 0 0 P_____________ AL031988 40.1597 -75.7356 EX 20 1009 -4 36 57
1988235N15317 1988 60 NA NA CHRIS 1988-08-30 00:00:00 ET 41.2000 -73.6000 20 1008 hurdat_atl main 0 0 O_____________ hurdat_atl AL031988 41.2000 -73.6000 EX 20 1008 -4 37 53
1988235N15317 1988 60 NA NA CHRIS 1988-08-30 03:00:00 ET 42.3787 -71.8129 main 0 0 P_____________ AL031988 42.3787 -71.8129 EX 20 1008 -4 36 50
1988235N15317 1988 60 NA NA CHRIS 1988-08-30 06:00:00 ET 43.5000 -69.9000 20 1008 hurdat_atl main 22 11 O_____________ hurdat_atl AL031988 43.5000 -69.9000 EX 20 1008 -4 36 58
1988235N15317 1988 60 NA NA CHRIS 1988-08-30 09:00:00 ET 44.3096 -67.5379 main 23 0 P_____________ AL031988 44.3096 -67.5379 EX 22 1008 -4 38 67
1988235N15317 1988 60 NA NA CHRIS 1988-08-30 12:00:00 ET 45.0000 -65.0000 25 1008 hurdat_atl main 0 0 O_____________ hurdat_atl AL031988 45.0000 -65.0000 EX 25 1008 -4 38 68
1988235N15317 1988 60 NA NA CHRIS 1988-08-30 15:00:00 ET 45.7381 -62.4966 main 11 0 P_____________ AL031988 45.7381 -62.4966 EX 25 1008 -4 38 67
1988235N15317 1988 60 NA NA CHRIS 1988-08-30 18:00:00 ET 46.5000 -60.0000 25 1008 hurdat_atl main 25 O_____________ hurdat_atl AL031988 46.5000 -60.0000 EX 25 1008 -4 38 66

About IBTrACS Database

This database is a web-friendly format of International Best Track Archive for Climate Stewardship (IBTrACS), a global best track data archive curated by NOAA dating back to 1842.

Updated: 2021-10-21